sensor_id;sensor_type;location;lat;lon;timestamp;temperature;humidity
47532;DHT22;33273;52.254;7.988;2023-02-28T00:00:04;-2.30;78.60
47532;DHT22;33273;52.254;7.988;2023-02-28T00:02:42;-2.30;78.00
47532;DHT22;33273;52.254;7.988;2023-02-28T00:05:08;-2.30;77.50
47532;DHT22;33273;52.254;7.988;2023-02-28T00:07:34;-2.40;77.10
47532;DHT22;33273;52.254;7.988;2023-02-28T00:10:00;-2.40;76.70
47532;DHT22;33273;52.254;7.988;2023-02-28T00:12:26;-2.40;76.60
47532;DHT22;33273;52.254;7.988;2023-02-28T00:14:51;-2.40;76.30
47532;DHT22;33273;52.254;7.988;2023-02-28T00:17:17;-2.50;76.20
47532;DHT22;33273;52.254;7.988;2023-02-28T00:19:50;-2.50;76.30
47532;DHT22;33273;52.254;7.988;2023-02-28T00:22:19;-2.50;76.30
47532;DHT22;33273;52.254;7.988;2023-02-28T00:24:53;-2.60;76.60
47532;DHT22;33273;52.254;7.988;2023-02-28T00:27:19;-2.60;77.00
47532;DHT22;33273;52.254;7.988;2023-02-28T00:29:46;-2.60;77.40
47532;DHT22;33273;52.254;7.988;2023-02-28T00:32:11;-2.70;77.50
47532;DHT22;33273;52.254;7.988;2023-02-28T00:34:37;-2.70;77.50
47532;DHT22;33273;52.254;7.988;2023-02-28T00:37:04;-2.80;77.70
47532;DHT22;33273;52.254;7.988;2023-02-28T00:39:35;-2.80;77.90
47532;DHT22;33273;52.254;7.988;2023-02-28T00:42:02;-2.80;78.20
47532;DHT22;33273;52.254;7.988;2023-02-28T00:44:28;-2.70;78.20
47532;DHT22;33273;52.254;7.988;2023-02-28T00:46:54;-2.80;78.00
47532;DHT22;33273;52.254;7.988;2023-02-28T00:49:23;-2.80;77.90
47532;DHT22;33273;52.254;7.988;2023-02-28T00:51:51;-2.80;78.00
47532;DHT22;33273;52.254;7.988;2023-02-28T00:54:18;-2.80;78.40
47532;DHT22;33273;52.254;7.988;2023-02-28T00:56:46;-2.90;78.60
47532;DHT22;33273;52.254;7.988;2023-02-28T00:59:12;-2.90;79.00
47532;DHT22;33273;52.254;7.988;2023-02-28T01:01:39;-2.90;79.60
47532;DHT22;33273;52.254;7.988;2023-02-28T01:04:05;-3.00;80.20
47532;DHT22;33273;52.254;7.988;2023-02-28T01:06:31;-3.00;81.10
47532;DHT22;33273;52.254;7.988;2023-02-28T01:08:57;-3.10;82.00
47532;DHT22;33273;52.254;7.988;2023-02-28T01:11:24;-3.00;82.30
47532;DHT22;33273;52.254;7.988;2023-02-28T01:13:49;-3.10;82.60
47532;DHT22;33273;52.254;7.988;2023-02-28T01:16:15;-3.00;82.60
47532;DHT22;33273;52.254;7.988;2023-02-28T01:18:41;-3.10;82.50
47532;DHT22;33273;52.254;7.988;2023-02-28T01:21:14;-3.00;82.30
47532;DHT22;33273;52.254;7.988;2023-02-28T01:23:42;-3.00;82.00
47532;DHT22;33273;52.254;7.988;2023-02-28T01:26:14;-3.10;81.70
47532;DHT22;33273;52.254;7.988;2023-02-28T01:28:39;-3.10;81.60
47532;DHT22;33273;52.254;7.988;2023-02-28T01:31:05;-3.10;81.60
47532;DHT22;33273;52.254;7.988;2023-02-28T01:33:31;-3.10;81.80
47532;DHT22;33273;52.254;7.988;2023-02-28T01:36:09;-3.00;82.00
47532;DHT22;33273;52.254;7.988;2023-02-28T01:38:36;-3.00;82.80
47532;DHT22;33273;52.254;7.988;2023-02-28T01:41:01;-3.00;82.20
47532;DHT22;33273;52.254;7.988;2023-02-28T01:43:29;-3.00;82.60
47532;DHT22;33273;52.254;7.988;2023-02-28T01:45:55;-3.00;83.00
47532;DHT22;33273;52.254;7.988;2023-02-28T01:48:24;-3.00;83.30
47532;DHT22;33273;52.254;7.988;2023-02-28T01:50:51;-3.00;83.90
47532;DHT22;33273;52.254;7.988;2023-02-28T01:53:19;-3.00;84.40
47532;DHT22;33273;52.254;7.988;2023-02-28T01:55:48;-3.00;85.50
47532;DHT22;33273;52.254;7.988;2023-02-28T01:58:15;-3.00;85.00
47532;DHT22;33273;52.254;7.988;2023-02-28T02:00:40;-3.00;85.30
47532;DHT22;33273;52.254;7.988;2023-02-28T02:03:14;-3.00;85.60
47532;DHT22;33273;52.254;7.988;2023-02-28T02:05:44;-3.00;85.80
47532;DHT22;33273;52.254;7.988;2023-02-28T02:08:15;-3.00;85.80
47532;DHT22;33273;52.254;7.988;2023-02-28T02:10:43;-3.00;85.70
47532;DHT22;33273;52.254;7.988;2023-02-28T02:13:28;-3.00;85.60
47532;DHT22;33273;52.254;7.988;2023-02-28T02:36:38;-3.10;86.80
47532;DHT22;33273;52.254;7.988;2023-02-28T02:42:01;-3.20;87.40
47532;DHT22;33273;52.254;7.988;2023-02-28T02:44:39;-3.20;87.60
47532;DHT22;33273;52.254;7.988;2023-02-28T02:47:14;-3.20;87.40
47532;DHT22;33273;52.254;7.988;2023-02-28T02:49:42;-3.20;87.40
47532;DHT22;33273;52.254;7.988;2023-02-28T02:52:09;-3.20;88.00
47532;DHT22;33273;52.254;7.988;2023-02-28T02:54:37;-3.20;87.10
47532;DHT22;33273;52.254;7.988;2023-02-28T02:57:08;-3.20;86.70
47532;DHT22;33273;52.254;7.988;2023-02-28T02:59:35;-3.20;86.40
47532;DHT22;33273;52.254;7.988;2023-02-28T03:02:04;-3.30;86.10
47532;DHT22;33273;52.254;7.988;2023-02-28T03:04:33;-3.30;85.70
47532;DHT22;33273;52.254;7.988;2023-02-28T03:07:00;-3.30;85.30
47532;DHT22;33273;52.254;7.988;2023-02-28T03:09:26;-3.30;84.90
47532;DHT22;33273;52.254;7.988;2023-02-28T03:11:53;-3.30;84.40
47532;DHT22;33273;52.254;7.988;2023-02-28T03:27:35;-3.50;84.70
47532;DHT22;33273;52.254;7.988;2023-02-28T03:30:15;-3.60;84.70
47532;DHT22;33273;52.254;7.988;2023-02-28T03:35:12;-3.60;84.70
47532;DHT22;33273;52.254;7.988;2023-02-28T03:37:40;-3.60;84.90
47532;DHT22;33273;52.254;7.988;2023-02-28T03:40:08;-3.70;85.10
47532;DHT22;33273;52.254;7.988;2023-02-28T03:42:39;-3.70;85.30
47532;DHT22;33273;52.254;7.988;2023-02-28T03:45:24;-3.70;85.50
47532;DHT22;33273;52.254;7.988;2023-02-28T03:52:42;-3.80;85.80
47532;DHT22;33273;52.254;7.988;2023-02-28T03:55:11;-3.80;85.80
47532;DHT22;33273;52.254;7.988;2023-02-28T03:57:56;-3.80;85.80
47532;DHT22;33273;52.254;7.988;2023-02-28T04:01:07;-3.70;86.60
47532;DHT22;33273;52.254;7.988;2023-02-28T04:03:12;-3.80;85.60
47532;DHT22;33273;52.254;7.988;2023-02-28T04:05:50;-3.80;85.40
47532;DHT22;33273;52.254;7.988;2023-02-28T04:08:15;-3.90;85.20
47532;DHT22;33273;52.254;7.988;2023-02-28T04:10:42;-3.90;85.20
47532;DHT22;33273;52.254;7.988;2023-02-28T04:13:09;-3.90;85.00
47532;DHT22;33273;52.254;7.988;2023-02-28T04:15:34;-3.90;84.80
47532;DHT22;33273;52.254;7.988;2023-02-28T04:18:00;-3.90;84.70
47532;DHT22;33273;52.254;7.988;2023-02-28T04:20:26;-3.90;84.50
47532;DHT22;33273;52.254;7.988;2023-02-28T04:22:51;-4.00;84.20
47532;DHT22;33273;52.254;7.988;2023-02-28T04:25:17;-4.00;84.20
47532;DHT22;33273;52.254;7.988;2023-02-28T04:27:43;-4.00;84.10
47532;DHT22;33273;52.254;7.988;2023-02-28T04:30:10;-4.00;84.10
47532;DHT22;33273;52.254;7.988;2023-02-28T04:32:36;-4.10;83.90
47532;DHT22;33273;52.254;7.988;2023-02-28T04:35:01;-4.10;83.80
47532;DHT22;33273;52.254;7.988;2023-02-28T04:37:28;-4.10;83.60
47532;DHT22;33273;52.254;7.988;2023-02-28T04:39:54;-4.10;83.30
47532;DHT22;33273;52.254;7.988;2023-02-28T04:42:20;-4.10;83.10
47532;DHT22;33273;52.254;7.988;2023-02-28T04:44:45;-4.10;82.80
47532;DHT22;33273;52.254;7.988;2023-02-28T04:47:12;-4.20;82.50
47532;DHT22;33273;52.254;7.988;2023-02-28T04:49:38;-4.20;82.40
47532;DHT22;33273;52.254;7.988;2023-02-28T04:54:35;-4.30;82.00
47532;DHT22;33273;52.254;7.988;2023-02-28T04:57:01;-4.30;81.90
47532;DHT22;33273;52.254;7.988;2023-02-28T04:59:27;-4.30;81.70
47532;DHT22;33273;52.254;7.988;2023-02-28T05:01:52;-4.40;81.50
47532;DHT22;33273;52.254;7.988;2023-02-28T05:04:18;-4.40;81.30
47532;DHT22;33273;52.254;7.988;2023-02-28T05:06:44;-4.40;81.10
47532;DHT22;33273;52.254;7.988;2023-02-28T05:09:09;-4.40;81.00
47532;DHT22;33273;52.254;7.988;2023-02-28T05:11:38;-4.50;80.70
47532;DHT22;33273;52.254;7.988;2023-02-28T05:14:05;-4.50;80.50
47532;DHT22;33273;52.254;7.988;2023-02-28T05:16:31;-4.50;80.40
47532;DHT22;33273;52.254;7.988;2023-02-28T05:18:58;-4.50;80.10
47532;DHT22;33273;52.254;7.988;2023-02-28T05:23:57;-4.60;80.00
47532;DHT22;33273;52.254;7.988;2023-02-28T05:26:23;-4.60;79.90
47532;DHT22;33273;52.254;7.988;2023-02-28T05:28:51;-4.60;79.80
47532;DHT22;33273;52.254;7.988;2023-02-28T05:31:16;-4.60;79.70
47532;DHT22;33273;52.254;7.988;2023-02-28T05:33:42;-4.60;79.60
47532;DHT22;33273;52.254;7.988;2023-02-28T05:36:09;-4.60;79.70
47532;DHT22;33273;52.254;7.988;2023-02-28T05:38:35;-4.60;80.00
47532;DHT22;33273;52.254;7.988;2023-02-28T05:41:04;-4.60;80.30
47532;DHT22;33273;52.254;7.988;2023-02-28T05:43:30;-4.60;80.70
47532;DHT22;33273;52.254;7.988;2023-02-28T05:45:56;-4.60;81.00
47532;DHT22;33273;52.254;7.988;2023-02-28T05:48:22;-4.60;81.30
47532;DHT22;33273;52.254;7.988;2023-02-28T05:50:47;-4.60;81.60
47532;DHT22;33273;52.254;7.988;2023-02-28T05:53:15;-4.50;82.10
47532;DHT22;33273;52.254;7.988;2023-02-28T05:55:41;-4.60;82.30
47532;DHT22;33273;52.254;7.988;2023-02-28T05:58:07;-4.50;82.80
47532;DHT22;33273;52.254;7.988;2023-02-28T06:00:32;-4.60;83.10
47532;DHT22;33273;52.254;7.988;2023-02-28T06:02:58;-4.60;83.50
47532;DHT22;33273;52.254;7.988;2023-02-28T06:05:27;-4.60;83.80
47532;DHT22;33273;52.254;7.988;2023-02-28T06:07:53;-4.50;84.10
47532;DHT22;33273;52.254;7.988;2023-02-28T06:10:19;-4.60;84.00
47532;DHT22;33273;52.254;7.988;2023-02-28T06:12:45;-4.60;84.00
47532;DHT22;33273;52.254;7.988;2023-02-28T06:15:15;-4.50;84.90
47532;DHT22;33273;52.254;7.988;2023-02-28T06:17:41;-4.60;83.90
47532;DHT22;33273;52.254;7.988;2023-02-28T06:20:07;-4.50;85.20
47532;DHT22;33273;52.254;7.988;2023-02-28T06:22:34;-4.50;85.70
47532;DHT22;33273;52.254;7.988;2023-02-28T06:25:01;-4.50;85.70
47532;DHT22;33273;52.254;7.988;2023-02-28T06:27:27;-4.50;85.70
47532;DHT22;33273;52.254;7.988;2023-02-28T06:29:55;-4.50;85.60
47532;DHT22;33273;52.254;7.988;2023-02-28T06:32:21;-4.50;85.40
47532;DHT22;33273;52.254;7.988;2023-02-28T06:34:47;-4.60;85.20
47532;DHT22;33273;52.254;7.988;2023-02-28T06:37:13;-4.60;85.00
47532;DHT22;33273;52.254;7.988;2023-02-28T06:39:40;-4.60;85.00
47532;DHT22;33273;52.254;7.988;2023-02-28T06:42:06;-4.60;85.20
47532;DHT22;33273;52.254;7.988;2023-02-28T06:44:32;-4.60;85.40
47532;DHT22;33273;52.254;7.988;2023-02-28T06:47:04;-4.60;86.20
47532;DHT22;33273;52.254;7.988;2023-02-28T06:49:34;-4.40;87.80
47532;DHT22;33273;52.254;7.988;2023-02-28T06:52:00;-4.10;90.80
47532;DHT22;33273;52.254;7.988;2023-02-28T06:54:25;-3.90;93.20
47532;DHT22;33273;52.254;7.988;2023-02-28T06:56:52;-3.70;94.90
47532;DHT22;33273;52.254;7.988;2023-02-28T06:59:19;-3.60;95.70
47532;DHT22;33273;52.254;7.988;2023-02-28T07:01:45;-3.40;96.70
47532;DHT22;33273;52.254;7.988;2023-02-28T07:04:11;-3.30;97.40
47532;DHT22;33273;52.254;7.988;2023-02-28T07:06:38;-3.30;97.20
47532;DHT22;33273;52.254;7.988;2023-02-28T07:09:04;-3.10;98.00
47532;DHT22;33273;52.254;7.988;2023-02-28T07:11:30;-3.10;97.20
47532;DHT22;33273;52.254;7.988;2023-02-28T07:13:56;-3.00;96.60
47532;DHT22;33273;52.254;7.988;2023-02-28T07:16:24;-2.90;96.40
47532;DHT22;33273;52.254;7.988;2023-02-28T07:18:53;-2.80;96.20
47532;DHT22;33273;52.254;7.988;2023-02-28T07:21:19;-2.80;96.00
47532;DHT22;33273;52.254;7.988;2023-02-28T07:23:45;-2.70;95.70
47532;DHT22;33273;52.254;7.988;2023-02-28T07:26:12;-2.50;95.70
47532;DHT22;33273;52.254;7.988;2023-02-28T07:28:40;-2.40;95.10
47532;DHT22;33273;52.254;7.988;2023-02-28T07:31:08;-2.30;95.10
47532;DHT22;33273;52.254;7.988;2023-02-28T07:33:34;-2.20;94.50
47532;DHT22;33273;52.254;7.988;2023-02-28T07:36:01;-2.20;93.70
47532;DHT22;33273;52.254;7.988;2023-02-28T07:38:27;-2.10;92.90
47532;DHT22;33273;52.254;7.988;2023-02-28T07:40:52;-2.00;92.00
47532;DHT22;33273;52.254;7.988;2023-02-28T07:43:18;-2.00;91.30
47532;DHT22;33273;52.254;7.988;2023-02-28T07:45:44;-2.00;90.80
47532;DHT22;33273;52.254;7.988;2023-02-28T07:48:09;-2.00;89.20
47532;DHT22;33273;52.254;7.988;2023-02-28T07:50:35;-2.00;88.30
47532;DHT22;33273;52.254;7.988;2023-02-28T07:53:01;-1.90;88.30
47532;DHT22;33273;52.254;7.988;2023-02-28T07:55:27;-1.90;87.90
47532;DHT22;33273;52.254;7.988;2023-02-28T07:57:53;-1.90;87.40
47532;DHT22;33273;52.254;7.988;2023-02-28T08:00:19;-1.80;87.10
47532;DHT22;33273;52.254;7.988;2023-02-28T08:02:46;-1.80;86.90
47532;DHT22;33273;52.254;7.988;2023-02-28T08:05:11;-1.70;86.80
47532;DHT22;33273;52.254;7.988;2023-02-28T08:07:37;-1.60;86.40
47532;DHT22;33273;52.254;7.988;2023-02-28T08:10:03;-1.60;86.50
47532;DHT22;33273;52.254;7.988;2023-02-28T08:12:31;-1.50;86.70
47532;DHT22;33273;52.254;7.988;2023-02-28T08:14:57;-1.40;86.60
47532;DHT22;33273;52.254;7.988;2023-02-28T08:17:23;-1.30;86.50
47532;DHT22;33273;52.254;7.988;2023-02-28T08:19:48;-1.20;86.10
47532;DHT22;33273;52.254;7.988;2023-02-28T08:22:14;-1.10;85.80
47532;DHT22;33273;52.254;7.988;2023-02-28T08:24:41;-1.10;85.40
47532;DHT22;33273;52.254;7.988;2023-02-28T08:27:08;-1.00;85.10
47532;DHT22;33273;52.254;7.988;2023-02-28T08:29:36;-0.90;84.90
47532;DHT22;33273;52.254;7.988;2023-02-28T08:32:01;-0.80;84.70
47532;DHT22;33273;52.254;7.988;2023-02-28T08:34:27;-0.70;84.70
47532;DHT22;33273;52.254;7.988;2023-02-28T08:36:53;-0.60;84.20
47532;DHT22;33273;52.254;7.988;2023-02-28T08:39:18;-0.50;83.30
47532;DHT22;33273;52.254;7.988;2023-02-28T08:41:45;-0.40;82.90
47532;DHT22;33273;52.254;7.988;2023-02-28T08:44:11;-0.30;82.70
47532;DHT22;33273;52.254;7.988;2023-02-28T08:46:37;-0.10;86.50
47532;DHT22;33273;52.254;7.988;2023-02-28T08:49:03;0.10;86.10
47532;DHT22;33273;52.254;7.988;2023-02-28T08:51:28;0.10;84.60
47532;DHT22;33273;52.254;7.988;2023-02-28T08:53:55;0.20;83.30
47532;DHT22;33273;52.254;7.988;2023-02-28T08:56:21;0.30;82.50
47532;DHT22;33273;52.254;7.988;2023-02-28T08:58:48;0.30;81.80
47532;DHT22;33273;52.254;7.988;2023-02-28T09:01:18;0.40;80.70
47532;DHT22;33273;52.254;7.988;2023-02-28T09:03:45;0.50;80.30
47532;DHT22;33273;52.254;7.988;2023-02-28T09:06:12;0.60;79.90
47532;DHT22;33273;52.254;7.988;2023-02-28T09:08:38;0.80;79.10
47532;DHT22;33273;52.254;7.988;2023-02-28T09:11:04;0.90;79.00
47532;DHT22;33273;52.254;7.988;2023-02-28T09:13:30;0.90;78.60
47532;DHT22;33273;52.254;7.988;2023-02-28T09:15:59;1.10;75.20
47532;DHT22;33273;52.254;7.988;2023-02-28T09:18:26;1.20;72.20
47532;DHT22;33273;52.254;7.988;2023-02-28T09:20:52;1.20;71.60
47532;DHT22;33273;52.254;7.988;2023-02-28T09:23:17;1.30;71.70
47532;DHT22;33273;52.254;7.988;2023-02-28T09:25:49;1.40;71.70
47532;DHT22;33273;52.254;7.988;2023-02-28T09:28:15;1.50;71.60
47532;DHT22;33273;52.254;7.988;2023-02-28T09:30:50;1.60;69.20
47532;DHT22;33273;52.254;7.988;2023-02-28T09:33:17;1.70;68.40
47532;DHT22;33273;52.254;7.988;2023-02-28T09:35:46;1.90;67.70
47532;DHT22;33273;52.254;7.988;2023-02-28T09:38:12;2.00;63.90
47532;DHT22;33273;52.254;7.988;2023-02-28T09:40:51;2.10;55.90
47532;DHT22;33273;52.254;7.988;2023-02-28T09:43:20;2.30;46.80
47532;DHT22;33273;52.254;7.988;2023-02-28T09:45:48;2.50;40.90
47532;DHT22;33273;52.254;7.988;2023-02-28T09:48:18;2.60;38.90
47532;DHT22;33273;52.254;7.988;2023-02-28T09:50:46;2.70;40.40
47532;DHT22;33273;52.254;7.988;2023-02-28T09:55:51;2.90;33.50
47532;DHT22;33273;52.254;7.988;2023-02-28T09:58:23;3.00;31.60
47532;DHT22;33273;52.254;7.988;2023-02-28T10:01:12;3.10;32.00
47532;DHT22;33273;52.254;7.988;2023-02-28T10:03:41;3.20;32.80
47532;DHT22;33273;52.254;7.988;2023-02-28T10:06:19;3.30;31.90
47532;DHT22;33273;52.254;7.988;2023-02-28T10:11:17;3.30;30.90
47532;DHT22;33273;52.254;7.988;2023-02-28T10:18:49;3.40;28.80
47532;DHT22;33273;52.254;7.988;2023-02-28T10:21:27;3.40;28.30
47532;DHT22;33273;52.254;7.988;2023-02-28T10:23:56;3.40;28.80
47532;DHT22;33273;52.254;7.988;2023-02-28T10:26:24;3.40;29.60
47532;DHT22;33273;52.254;7.988;2023-02-28T10:28:51;3.40;28.00
47532;DHT22;33273;52.254;7.988;2023-02-28T10:31:18;3.50;28.80
47532;DHT22;33273;52.254;7.988;2023-02-28T10:33:44;3.50;28.20
47532;DHT22;33273;52.254;7.988;2023-02-28T10:36:12;3.50;29.00
47532;DHT22;33273;52.254;7.988;2023-02-28T10:38:39;3.60;29.70
47532;DHT22;33273;52.254;7.988;2023-02-28T10:41:15;3.60;29.70
47532;DHT22;33273;52.254;7.988;2023-02-28T10:43:42;3.70;28.80
47532;DHT22;33273;52.254;7.988;2023-02-28T10:48:39;3.70;28.60
47532;DHT22;33273;52.254;7.988;2023-02-28T10:51:10;3.70;28.70
47532;DHT22;33273;52.254;7.988;2023-02-28T10:53:38;3.80;28.70
47532;DHT22;33273;52.254;7.988;2023-02-28T10:58:49;3.90;27.20
47532;DHT22;33273;52.254;7.988;2023-02-28T11:01:19;3.90;27.30
47532;DHT22;33273;52.254;7.988;2023-02-28T11:03:46;3.90;26.70
47532;DHT22;33273;52.254;7.988;2023-02-28T11:08:44;3.90;27.00
47532;DHT22;33273;52.254;7.988;2023-02-28T11:11:11;4.00;27.80
47532;DHT22;33273;52.254;7.988;2023-02-28T11:13:44;4.00;26.70
47532;DHT22;33273;52.254;7.988;2023-02-28T11:16:11;4.10;27.20
47532;DHT22;33273;52.254;7.988;2023-02-28T11:18:50;4.00;26.20
47532;DHT22;33273;52.254;7.988;2023-02-28T11:21:20;4.00;26.20
47532;DHT22;33273;52.254;7.988;2023-02-28T11:23:47;4.00;26.20
47532;DHT22;33273;52.254;7.988;2023-02-28T11:26:14;4.00;26.40
47532;DHT22;33273;52.254;7.988;2023-02-28T11:28:42;4.00;27.20
47532;DHT22;33273;52.254;7.988;2023-02-28T11:33:41;4.10;27.20
47532;DHT22;33273;52.254;7.988;2023-02-28T11:36:10;4.20;27.40
47532;DHT22;33273;52.254;7.988;2023-02-28T11:38:37;4.30;27.30
47532;DHT22;33273;52.254;7.988;2023-02-28T11:51:42;4.20;27.30
47532;DHT22;33273;52.254;7.988;2023-02-28T11:57:03;4.20;28.40
47532;DHT22;33273;52.254;7.988;2023-02-28T11:59:41;4.20;28.50
47532;DHT22;33273;52.254;7.988;2023-02-28T12:04:52;4.40;28.40
47532;DHT22;33273;52.254;7.988;2023-02-28T12:12:47;4.50;28.60
47532;DHT22;33273;52.254;7.988;2023-02-28T12:17:51;4.40;29.00
47532;DHT22;33273;52.254;7.988;2023-02-28T12:22:49;4.40;29.10
47532;DHT22;33273;52.254;7.988;2023-02-28T12:25:20;4.30;28.50
47532;DHT22;33273;52.254;7.988;2023-02-28T12:27:47;4.30;29.20
47532;DHT22;33273;52.254;7.988;2023-02-28T12:32:41;4.50;29.30
47532;DHT22;33273;52.254;7.988;2023-02-28T12:35:25;4.50;29.50
47532;DHT22;33273;52.254;7.988;2023-02-28T12:40:21;4.40;28.50
47532;DHT22;33273;52.254;7.988;2023-02-28T12:42:58;4.50;28.70
47532;DHT22;33273;52.254;7.988;2023-02-28T12:45:26;4.50;27.70
47532;DHT22;33273;52.254;7.988;2023-02-28T12:48:04;4.50;27.70
47532;DHT22;33273;52.254;7.988;2023-02-28T12:50:30;4.50;27.40
47532;DHT22;33273;52.254;7.988;2023-02-28T12:53:09;4.50;28.00
47532;DHT22;33273;52.254;7.988;2023-02-28T12:55:41;4.60;29.00
47532;DHT22;33273;52.254;7.988;2023-02-28T12:58:18;4.60;28.30
47532;DHT22;33273;52.254;7.988;2023-02-28T13:03:26;4.50;28.50
47532;DHT22;33273;52.254;7.988;2023-02-28T13:11:04;4.70;29.30
47532;DHT22;33273;52.254;7.988;2023-02-28T13:13:30;4.70;29.40
47532;DHT22;33273;52.254;7.988;2023-02-28T13:15:57;4.60;29.20
47532;DHT22;33273;52.254;7.988;2023-02-28T13:20:57;4.70;29.30
47532;DHT22;33273;52.254;7.988;2023-02-28T13:23:40;4.70;29.70
47532;DHT22;33273;52.254;7.988;2023-02-28T13:26:06;4.60;29.90
47532;DHT22;33273;52.254;7.988;2023-02-28T13:31:18;4.80;30.10
47532;DHT22;33273;52.254;7.988;2023-02-28T13:44:15;4.90;30.90
47532;DHT22;33273;52.254;7.988;2023-02-28T13:52:33;4.90;29.40
47532;DHT22;33273;52.254;7.988;2023-02-28T13:54:51;4.90;30.30
47532;DHT22;33273;52.254;7.988;2023-02-28T14:07:22;4.90;29.80
47532;DHT22;33273;52.254;7.988;2023-02-28T14:09:56;4.80;30.10
47532;DHT22;33273;52.254;7.988;2023-02-28T14:17:52;4.80;29.70
47532;DHT22;33273;52.254;7.988;2023-02-28T14:20:20;4.90;28.90
47532;DHT22;33273;52.254;7.988;2023-02-28T14:32:54;4.70;29.20
47532;DHT22;33273;52.254;7.988;2023-02-28T14:38:14;4.80;29.10
47532;DHT22;33273;52.254;7.988;2023-02-28T14:40:42;4.80;29.50
47532;DHT22;33273;52.254;7.988;2023-02-28T14:43:18;4.80;28.90
47532;DHT22;33273;52.254;7.988;2023-02-28T14:45:49;4.80;29.20
47532;DHT22;33273;52.254;7.988;2023-02-28T14:48:16;4.80;29.30
47532;DHT22;33273;52.254;7.988;2023-02-28T14:50:48;4.90;29.30
47532;DHT22;33273;52.254;7.988;2023-02-28T14:53:17;4.90;28.70
47532;DHT22;33273;52.254;7.988;2023-02-28T14:55:47;4.90;29.00
47532;DHT22;33273;52.254;7.988;2023-02-28T15:01:05;4.80;29.20
47532;DHT22;33273;52.254;7.988;2023-02-28T15:03:33;4.80;29.60
47532;DHT22;33273;52.254;7.988;2023-02-28T15:06:00;4.80;29.60
47532;DHT22;33273;52.254;7.988;2023-02-28T15:08:27;4.80;29.50
47532;DHT22;33273;52.254;7.988;2023-02-28T15:11:01;4.80;29.70
47532;DHT22;33273;52.254;7.988;2023-02-28T15:13:41;4.80;29.80
47532;DHT22;33273;52.254;7.988;2023-02-28T15:16:14;4.80;29.60
47532;DHT22;33273;52.254;7.988;2023-02-28T15:18:53;4.80;29.40
47532;DHT22;33273;52.254;7.988;2023-02-28T15:23:52;4.80;28.90
47532;DHT22;33273;52.254;7.988;2023-02-28T15:26:21;4.70;28.80
47532;DHT22;33273;52.254;7.988;2023-02-28T15:28:49;4.70;29.10
47532;DHT22;33273;52.254;7.988;2023-02-28T15:31:18;4.80;29.60
47532;DHT22;33273;52.254;7.988;2023-02-28T15:33:58;4.80;29.60
47532;DHT22;33273;52.254;7.988;2023-02-28T15:36:31;4.80;29.90
47532;DHT22;33273;52.254;7.988;2023-02-28T15:38:59;4.80;30.00
47532;DHT22;33273;52.254;7.988;2023-02-28T15:41:29;4.70;30.00
47532;DHT22;33273;52.254;7.988;2023-02-28T15:46:42;4.60;30.50
47532;DHT22;33273;52.254;7.988;2023-02-28T15:49:13;4.60;30.50
47532;DHT22;33273;52.254;7.988;2023-02-28T15:51:43;4.60;30.30
47532;DHT22;33273;52.254;7.988;2023-02-28T15:54:12;4.60;30.70
47532;DHT22;33273;52.254;7.988;2023-02-28T15:56:44;4.50;30.90
47532;DHT22;33273;52.254;7.988;2023-02-28T15:59:15;4.50;30.70
47532;DHT22;33273;52.254;7.988;2023-02-28T16:01:42;4.40;30.70
47532;DHT22;33273;52.254;7.988;2023-02-28T16:04:15;4.40;30.70
47532;DHT22;33273;52.254;7.988;2023-02-28T16:07:03;4.40;31.40
47532;DHT22;33273;52.254;7.988;2023-02-28T16:09:27;4.40;32.10
47532;DHT22;33273;52.254;7.988;2023-02-28T16:11:56;4.40;31.90
47532;DHT22;33273;52.254;7.988;2023-02-28T16:14:25;4.40;31.90
47532;DHT22;33273;52.254;7.988;2023-02-28T16:16:54;4.40;32.00
47532;DHT22;33273;52.254;7.988;2023-02-28T16:19:21;4.30;32.40
47532;DHT22;33273;52.254;7.988;2023-02-28T16:21:47;4.30;32.30
47532;DHT22;33273;52.254;7.988;2023-02-28T16:24:13;4.30;32.50
47532;DHT22;33273;52.254;7.988;2023-02-28T16:26:40;4.30;32.70
47532;DHT22;33273;52.254;7.988;2023-02-28T16:29:06;4.20;33.00
47532;DHT22;33273;52.254;7.988;2023-02-28T16:31:37;4.20;32.90
47532;DHT22;33273;52.254;7.988;2023-02-28T16:34:04;4.20;33.00
47532;DHT22;33273;52.254;7.988;2023-02-28T16:36:30;4.20;33.40
47532;DHT22;33273;52.254;7.988;2023-02-28T16:38:55;4.10;33.50
47532;DHT22;33273;52.254;7.988;2023-02-28T16:41:23;4.10;33.30
47532;DHT22;33273;52.254;7.988;2023-02-28T16:43:51;4.10;33.70
47532;DHT22;33273;52.254;7.988;2023-02-28T16:46:18;4.00;33.60
47532;DHT22;33273;52.254;7.988;2023-02-28T16:48:44;4.00;33.70
47532;DHT22;33273;52.254;7.988;2023-02-28T16:51:17;4.00;33.60
47532;DHT22;33273;52.254;7.988;2023-02-28T16:53:44;3.90;33.70
47532;DHT22;33273;52.254;7.988;2023-02-28T16:56:13;3.90;33.90
47532;DHT22;33273;52.254;7.988;2023-02-28T16:58:39;3.80;34.00
47532;DHT22;33273;52.254;7.988;2023-02-28T17:01:05;3.80;33.90
47532;DHT22;33273;52.254;7.988;2023-02-28T17:03:31;3.70;33.80
47532;DHT22;33273;52.254;7.988;2023-02-28T17:05:57;3.80;33.50
47532;DHT22;33273;52.254;7.988;2023-02-28T17:08:22;3.80;33.10
47532;DHT22;33273;52.254;7.988;2023-02-28T17:10:48;3.70;33.40
47532;DHT22;33273;52.254;7.988;2023-02-28T17:13:14;3.70;33.30
47532;DHT22;33273;52.254;7.988;2023-02-28T17:15:39;3.70;33.60
47532;DHT22;33273;52.254;7.988;2023-02-28T17:18:06;3.60;33.80
47532;DHT22;33273;52.254;7.988;2023-02-28T17:20:32;3.60;33.80
47532;DHT22;33273;52.254;7.988;2023-02-28T17:22:57;3.60;34.00
47532;DHT22;33273;52.254;7.988;2023-02-28T17:25:23;3.50;33.90
47532;DHT22;33273;52.254;7.988;2023-02-28T17:27:49;3.50;34.20
47532;DHT22;33273;52.254;7.988;2023-02-28T17:32:46;3.40;34.60
47532;DHT22;33273;52.254;7.988;2023-02-28T17:35:12;3.30;34.80
47532;DHT22;33273;52.254;7.988;2023-02-28T17:37:38;3.30;34.90
47532;DHT22;33273;52.254;7.988;2023-02-28T17:40:09;3.20;35.10
47532;DHT22;33273;52.254;7.988;2023-02-28T17:42:37;3.20;35.30
47532;DHT22;33273;52.254;7.988;2023-02-28T17:45:03;3.10;35.50
47532;DHT22;33273;52.254;7.988;2023-02-28T17:47:29;3.10;35.70
47532;DHT22;33273;52.254;7.988;2023-02-28T17:49:54;3.00;35.90
47532;DHT22;33273;52.254;7.988;2023-02-28T17:52:20;2.90;36.30
47532;DHT22;33273;52.254;7.988;2023-02-28T17:54:47;2.90;36.70
47532;DHT22;33273;52.254;7.988;2023-02-28T17:57:16;2.80;37.40
47532;DHT22;33273;52.254;7.988;2023-02-28T17:59:42;2.80;37.10
47532;DHT22;33273;52.254;7.988;2023-02-28T18:02:09;2.70;37.40
47532;DHT22;33273;52.254;7.988;2023-02-28T18:04:35;2.70;37.70
47532;DHT22;33273;52.254;7.988;2023-02-28T18:07:01;2.60;37.80
47532;DHT22;33273;52.254;7.988;2023-02-28T18:09:27;2.50;38.10
47532;DHT22;33273;52.254;7.988;2023-02-28T18:11:53;2.40;38.30
47532;DHT22;33273;52.254;7.988;2023-02-28T18:14:19;2.40;38.50
47532;DHT22;33273;52.254;7.988;2023-02-28T18:16:46;2.40;38.90
47532;DHT22;33273;52.254;7.988;2023-02-28T18:19:12;2.30;39.20
47532;DHT22;33273;52.254;7.988;2023-02-28T18:21:51;2.30;39.50
47532;DHT22;33273;52.254;7.988;2023-02-28T18:24:18;2.20;39.60
47532;DHT22;33273;52.254;7.988;2023-02-28T18:26:44;2.20;39.60
47532;DHT22;33273;52.254;7.988;2023-02-28T18:29:20;2.10;39.80
47532;DHT22;33273;52.254;7.988;2023-02-28T18:31:46;2.00;39.80